Time;durP1;ratioP1;P1;durP2;ratioP2;P2;SDS_P1;SDS_P2;PMS_P1;PMS_P2;Temp;Humidity;BMP_temperature;BMP_pressure;BME280_temperature;BME280_humidity;BME280_pressure;Samples;Min_cycle;Max_cycle;Signal;HPM_P1;HPM_P2
2022/06/27 00:00:49;;;;;;;0.40;0.40;;;18.00;75.90;;;;;;5091817;28;20150;-72
2022/06/27 00:03:15;;;;;;;0.63;0.60;;;18.00;75.90;;;;;;5091790;28;20127;-71
2022/06/27 00:05:42;;;;;;;0.43;0.43;;;17.90;75.90;;;;;;5091744;28;20097;-71
2022/06/27 00:08:08;;;;;;;0.30;0.30;;;18.00;76.00;;;;;;5073511;28;20088;-71
2022/06/27 00:10:34;;;;;;;0.40;0.40;;;17.90;76.00;;;;;;5091670;28;20036;-71
2022/06/27 00:12:59;;;;;;;0.57;0.50;;;17.90;76.00;;;;;;5077026;28;20040;-71
2022/06/27 00:15:25;;;;;;;0.45;0.45;;;18.00;76.00;;;;;;5076956;28;20048;-71
2022/06/27 00:17:51;;;;;;;0.30;0.30;;;17.90;76.00;;;;;;5043597;28;20036;-71
2022/06/27 00:20:17;;;;;;;0.40;0.40;;;17.90;76.00;;;;;;5095165;28;20132;-71
2022/06/27 00:22:43;;;;;;;0.40;0.40;;;17.90;76.10;;;;;;5095182;28;20462;-71
2022/06/27 00:25:10;;;;;;;0.40;0.30;;;17.90;76.10;;;;;;5095051;28;20397;-71
2022/06/27 00:27:36;;;;;;;0.52;0.40;;;17.80;76.10;;;;;;5094780;28;20474;-71
2022/06/27 00:30:03;;;;;;;0.50;0.50;;;17.90;76.20;;;;;;5095158;28;20089;-71
2022/06/27 00:32:29;;;;;;;0.43;0.43;;;17.80;76.30;;;;;;5095443;28;20029;-72
2022/06/27 00:34:55;;;;;;;0.40;0.40;;;17.80;76.30;;;;;;5095206;28;20551;-71
2022/06/27 00:37:20;;;;;;;0.32;0.32;;;17.80;76.30;;;;;;5094875;28;20458;-72
2022/06/27 00:39:46;;;;;;;0.50;0.50;;;17.80;76.40;;;;;;5076842;28;20047;-71
2022/06/27 00:42:12;;;;;;;0.35;0.35;;;17.70;76.40;;;;;;5094573;28;20391;-72
2022/06/27 00:44:40;;;;;;;0.77;0.50;;;17.80;76.50;;;;;;5094541;28;20040;-72
2022/06/27 00:47:08;;;;;;;0.40;0.40;;;17.80;76.50;;;;;;5076835;28;20044;-72
2022/06/27 00:49:35;;;;;;;0.50;0.50;;;17.80;76.50;;;;;;5076645;28;20043;-72
2022/06/27 00:52:04;;;;;;;0.40;0.40;;;17.70;76.40;;;;;;5094497;28;20106;-72
2022/06/27 00:54:30;;;;;;;0.40;0.40;;;17.70;76.40;;;;;;5094973;28;20044;-71
2022/06/27 00:56:56;;;;;;;0.50;0.40;;;17.80;76.40;;;;;;5094354;28;20055;-72
2022/06/27 00:59:22;;;;;;;0.38;0.38;;;17.80;76.50;;;;;;5076496;28;20036;-72
2022/06/27 01:01:49;;;;;;;0.55;0.40;;;17.80;76.50;;;;;;5076686;28;20043;-72
2022/06/27 01:04:15;;;;;;;0.30;0.30;;;17.80;76.50;;;;;;5094225;28;20040;-72
2022/06/27 01:06:41;;;;;;;0.65;0.50;;;17.70;76.50;;;;;;5094264;28;20040;-72
2022/06/27 01:09:07;;;;;;;0.50;0.50;;;17.70;76.50;;;;;;5094156;28;20040;-72
2022/06/27 01:11:33;;;;;;;0.82;0.55;;;17.70;76.50;;;;;;5094227;28;20046;-72
2022/06/27 01:14:00;;;;;;;0.40;0.40;;;17.70;76.50;;;;;;5094561;28;20048;-72
2022/06/27 01:16:26;;;;;;;0.60;0.52;;;17.70;76.50;;;;;;5094297;28;20040;-72
2022/06/27 01:18:52;;;;;;;0.43;0.43;;;17.70;76.50;;;;;;5076311;28;20092;-72
2022/06/27 01:21:21;;;;;;;0.88;0.50;;;17.70;76.50;;;;;;5093921;28;20032;-72
2022/06/27 01:23:47;;;;;;;0.40;0.40;;;17.80;76.60;;;;;;5092935;28;20067;-72
2022/06/27 01:26:13;;;;;;;0.55;0.50;;;17.70;76.60;;;;;;5076144;28;20040;-72
2022/06/27 01:28:39;;;;;;;0.60;0.60;;;17.70;76.70;;;;;;5093944;28;20355;-72
2022/06/27 01:31:05;;;;;;;0.55;0.50;;;17.70;76.70;;;;;;5094040;28;20121;-72
2022/06/27 01:33:31;;;;;;;0.50;0.43;;;17.70;76.70;;;;;;5094589;28;20135;-72
2022/06/27 01:38:42;;;;;;;0.65;0.40;;;17.70;76.80;;;;;;5093818;28;20040;-72
2022/06/27 01:41:08;;;;;;;0.43;0.43;;;17.60;76.70;;;;;;5093968;28;20048;-72
2022/06/27 01:43:34;;;;;;;0.60;0.50;;;17.70;76.80;;;;;;5094246;28;20395;-72
2022/06/27 01:46:00;;;;;;;0.40;0.40;;;17.60;76.80;;;;;;5075803;28;20067;-72
2022/06/27 01:48:28;;;;;;;0.40;0.40;;;17.60;76.80;;;;;;5094066;28;20113;-72
2022/06/27 01:50:56;;;;;;;0.47;0.47;;;17.70;77.60;;;;;;5091781;28;20040;-72
2022/06/27 01:53:23;;;;;;;0.40;0.40;;;17.70;76.90;;;;;;5093662;28;20047;-72
2022/06/27 01:55:48;;;;;;;0.50;0.50;;;17.70;76.90;;;;;;5093690;28;20048;-73
2022/06/27 01:58:14;;;;;;;0.55;0.50;;;17.60;76.80;;;;;;5093686;28;20051;-72
2022/06/27 02:00:40;;;;;;;0.30;0.30;;;17.60;76.80;;;;;;5093657;28;20044;-72
2022/06/27 02:03:06;;;;;;;0.55;0.55;;;17.60;76.80;;;;;;5058580;28;20051;-72
2022/06/27 02:05:32;;;;;;;0.98;0.55;;;17.60;76.80;;;;;;5058641;28;20047;-72
2022/06/27 02:08:00;;;;;;;0.57;0.50;;;17.60;76.80;;;;;;5093933;28;20051;-72
2022/06/27 02:10:25;;;;;;;0.30;0.30;;;17.60;76.80;;;;;;5094057;28;20036;-72
2022/06/27 02:12:51;;;;;;;0.40;0.40;;;17.60;76.80;;;;;;5093133;28;20043;-72
2022/06/27 02:15:17;;;;;;;1.00;0.52;;;17.70;76.90;;;;;;5093264;28;20511;-72
2022/06/27 02:17:43;;;;;;;0.32;0.32;;;17.60;76.80;;;;;;5093295;28;20146;-72
2022/06/27 02:20:09;;;;;;;0.30;0.30;;;17.60;76.70;;;;;;5074981;28;20051;-72
2022/06/27 02:22:35;;;;;;;0.32;0.32;;;17.70;76.70;;;;;;5093023;28;20432;-72
2022/06/27 02:25:01;;;;;;;0.68;0.40;;;17.70;76.80;;;;;;5093172;28;20087;-72
2022/06/27 02:27:29;;;;;;;0.40;0.40;;;17.60;76.70;;;;;;5093162;28;20127;-72
2022/06/27 02:29:55;;;;;;;0.68;0.40;;;17.70;76.80;;;;;;5093234;28;20039;-72
2022/06/27 02:32:21;;;;;;;0.35;0.35;;;17.70;76.90;;;;;;5074959;28;20044;-72
2022/06/27 02:34:50;;;;;;;1.13;0.43;;;17.70;76.90;;;;;;5092458;28;20129;-72
2022/06/27 02:37:17;;;;;;;0.35;0.35;;;17.60;76.80;;;;;;5092932;28;20106;-72
2022/06/27 02:39:46;;;;;;;0.38;0.38;;;17.70;76.90;;;;;;5091245;28;20093;-72
2022/06/27 02:42:16;;;;;;;1.00;0.40;;;17.60;76.80;;;;;;5092798;28;20047;-72
2022/06/27 02:44:45;;;;;;;0.43;0.43;;;17.70;76.90;;;;;;5092848;28;20051;-73
2022/06/27 02:47:13;;;;;;;0.50;0.50;;;17.60;76.90;;;;;;5092612;28;20139;-72
2022/06/27 02:49:40;;;;;;;0.50;0.50;;;17.60;76.90;;;;;;5074724;28;20072;-73
2022/06/27 02:52:16;;;;;;;1.10;0.50;;;17.60;76.90;;;;;;5092601;28;20036;-72
2022/06/27 02:54:53;;;;;;;0.60;0.52;;;17.60;76.90;;;;;;5074556;28;20040;-72
2022/06/27 02:57:45;;;;;;;0.60;0.60;;;17.60;76.90;;;;;;5092634;28;20459;-72
2022/06/27 03:00:12;;;;;;;0.43;0.43;;;17.60;76.90;;;;;;5092290;28;20035;-72
2022/06/27 03:02:40;;;;;;;0.55;0.55;;;17.60;76.90;;;;;;5092992;28;20036;-73
2022/06/27 03:05:07;;;;;;;0.50;0.50;;;17.60;76.90;;;;;;5092911;28;20124;-72
2022/06/27 03:07:42;;;;;;;0.50;0.50;;;17.70;76.90;;;;;;5092744;28;20048;-72
2022/06/27 03:10:10;;;;;;;0.68;0.47;;;17.60;76.90;;;;;;5092271;28;20497;-73
2022/06/27 03:12:36;;;;;;;0.30;0.30;;;17.60;76.90;;;;;;5092823;28;20039;-72
2022/06/27 03:15:01;;;;;;;1.25;0.52;;;17.60;77.00;;;;;;5092466;28;20047;-72
2022/06/27 03:17:27;;;;;;;0.50;0.50;;;17.60;77.00;;;;;;5092023;28;20057;-72
2022/06/27 03:19:53;;;;;;;0.50;0.50;;;17.60;77.10;;;;;;5092635;28;20044;-72
2022/06/27 03:22:19;;;;;;;0.40;0.40;;;17.60;77.20;;;;;;5092523;28;20043;-72
2022/06/27 03:24:45;;;;;;;0.68;0.50;;;17.50;77.20;;;;;;5074323;28;20051;-72
2022/06/27 03:27:10;;;;;;;0.50;0.50;;;17.50;77.20;;;;;;5091831;28;20044;-72
2022/06/27 03:29:37;;;;;;;0.50;0.50;;;17.50;77.40;;;;;;5092055;28;20040;-72
2022/06/27 03:32:04;;;;;;;0.50;0.50;;;17.50;77.40;;;;;;5055057;28;20040;-72
2022/06/27 03:34:30;;;;;;;0.50;0.50;;;17.50;77.50;;;;;;5074236;28;20093;-72
2022/06/27 03:36:55;;;;;;;0.52;0.52;;;17.40;77.40;;;;;;5092300;28;20036;-72
2022/06/27 03:39:21;;;;;;;0.50;0.50;;;17.50;77.60;;;;;;5092579;28;20036;-72
2022/06/27 03:41:47;;;;;;;0.35;0.35;;;17.40;77.50;;;;;;5092086;28;20550;-72
2022/06/27 03:44:13;;;;;;;0.50;0.50;;;17.50;77.60;;;;;;5091873;28;20035;-72
2022/06/27 03:46:39;;;;;;;0.30;0.30;;;17.60;77.70;;;;;;5092689;28;20397;-72
2022/06/27 03:51:43;;;;;;;0.55;0.55;;;17.40;77.70;;;;;;5095470;28;20497;-72
2022/06/27 03:54:09;;;;;;;0.82;0.60;;;17.40;77.70;;;;;;5095434;28;20093;-72
2022/06/27 03:56:35;;;;;;;0.40;0.40;;;17.40;77.70;;;;;;5095520;28;20178;-72
2022/06/27 03:59:00;;;;;;;0.32;0.32;;;17.40;77.80;;;;;;5095948;28;20063;-72
2022/06/27 04:01:26;;;;;;;0.40;0.40;;;17.30;77.80;;;;;;5095303;28;20047;-72
2022/06/27 04:03:52;;;;;;;0.52;0.52;;;17.40;78.00;;;;;;5061001;28;20035;-72
2022/06/27 04:06:18;;;;;;;0.50;0.50;;;17.30;78.00;;;;;;5077726;28;20354;-72
2022/06/27 04:08:44;;;;;;;0.50;0.50;;;17.40;78.10;;;;;;5095634;28;20213;-72
2022/06/27 04:11:09;;;;;;;0.40;0.40;;;17.30;78.20;;;;;;5077429;28;20066;-72
2022/06/27 04:13:35;;;;;;;0.50;0.50;;;17.30;78.30;;;;;;5095470;28;20039;-72
2022/06/27 04:16:01;;;;;;;0.40;0.40;;;17.30;78.30;;;;;;5096184;28;20501;-72
2022/06/27 04:18:27;;;;;;;3.22;0.50;;;17.30;78.30;;;;;;5078188;28;20044;-73
2022/06/27 04:20:52;;;;;;;0.32;0.32;;;17.30;78.30;;;;;;5095493;28;20074;-72
2022/06/27 04:23:18;;;;;;;0.50;0.50;;;17.30;78.30;;;;;;5095441;28;20040;-72
2022/06/27 04:25:44;;;;;;;0.50;0.50;;;17.30;78.20;;;;;;5077277;28;20097;-72
2022/06/27 04:28:10;;;;;;;0.40;0.40;;;17.30;78.20;;;;;;5095418;28;20131;-72
2022/06/27 04:30:35;;;;;;;0.65;0.50;;;17.30;78.30;;;;;;5095114;28;20097;-72
2022/06/27 04:33:02;;;;;;;0.63;0.32;;;17.30;78.20;;;;;;5095234;28;20039;-72
2022/06/27 04:35:28;;;;;;;0.45;0.45;;;17.40;78.30;;;;;;5077257;28;20036;-72
2022/06/27 04:37:54;;;;;;;0.40;0.40;;;17.40;78.20;;;;;;5095723;28;20040;-72
2022/06/27 04:40:20;;;;;;;0.40;0.40;;;17.40;78.20;;;;;;5095757;28;20048;-72
2022/06/27 04:42:48;;;;;;;0.77;0.65;;;17.50;78.20;;;;;;5095606;28;20051;-72
2022/06/27 04:45:14;;;;;;;0.50;0.50;;;17.50;78.10;;;;;;5077962;28;20040;-72
2022/06/27 04:47:41;;;;;;;0.52;0.50;;;17.50;78.10;;;;;;5094804;28;20129;-72
2022/06/27 04:50:09;;;;;;;1.27;0.60;;;17.60;78.10;;;;;;5094987;28;20116;-72
2022/06/27 04:52:38;;;;;;;0.40;0.40;;;17.60;78.10;;;;;;5094990;28;20048;-72
2022/06/27 04:55:07;;;;;;;0.50;0.50;;;17.70;78.70;;;;;;5094919;28;20035;-72
2022/06/27 04:57:35;;;;;;;0.60;0.60;;;17.70;77.90;;;;;;5076846;28;20086;-73
2022/06/27 05:00:03;;;;;;;0.65;0.60;;;17.70;77.80;;;;;;5094782;28;20032;-72
2022/06/27 05:02:29;;;;;;;0.60;0.43;;;17.80;77.90;;;;;;5095235;28;20043;-72
2022/06/27 05:04:55;;;;;;;0.50;0.50;;;17.80;77.90;;;;;;5094669;28;20050;-72
2022/06/27 05:07:22;;;;;;;0.50;0.50;;;17.90;77.90;;;;;;5076467;28;20044;-72
2022/06/27 05:09:47;;;;;;;0.75;0.65;;;17.90;77.90;;;;;;5094653;28;20104;-73
2022/06/27 05:12:13;;;;;;;0.40;0.40;;;17.90;77.80;;;;;;5076503;28;20039;-72
2022/06/27 05:14:39;;;;;;;0.60;0.60;;;18.00;77.90;;;;;;5094614;28;20508;-72
2022/06/27 05:17:05;;;;;;;0.60;0.60;;;18.00;77.90;;;;;;5094546;28;20044;-72
2022/06/27 05:19:31;;;;;;;0.50;0.50;;;18.10;78.00;;;;;;5094960;28;20584;-72
2022/06/27 05:21:57;;;;;;;0.60;0.60;;;18.10;77.90;;;;;;5094528;28;20505;-72
2022/06/27 05:24:22;;;;;;;0.40;0.40;;;18.10;77.90;;;;;;5094654;28;20124;-73
2022/06/27 05:26:48;;;;;;;0.70;0.52;;;18.20;77.90;;;;;;5093967;28;20032;-73
2022/06/27 05:29:14;;;;;;;0.50;0.50;;;18.20;77.90;;;;;;5094343;28;20036;-72
2022/06/27 05:31:39;;;;;;;0.40;0.40;;;18.10;78.00;;;;;;5094400;28;20039;-72
2022/06/27 05:34:05;;;;;;;1.00;0.80;;;18.20;78.10;;;;;;5094193;28;20041;-72
2022/06/27 05:36:31;;;;;;;0.60;0.60;;;18.20;78.70;;;;;;5094230;28;20040;-72
2022/06/27 05:38:57;;;;;;;0.60;0.60;;;18.20;78.10;;;;;;5094438;28;20119;-72
2022/06/27 05:41:23;;;;;;;0.57;0.57;;;18.20;78.10;;;;;;5075978;28;20040;-72
2022/06/27 05:43:49;;;;;;;0.68;0.68;;;18.20;78.10;;;;;;5094230;28;20042;-72
2022/06/27 05:46:15;;;;;;;0.55;0.52;;;18.20;78.10;;;;;;5094447;28;20124;-72
2022/06/27 05:48:41;;;;;;;0.50;0.50;;;18.20;78.20;;;;;;5093981;28;20044;-72
2022/06/27 05:51:07;;;;;;;0.70;0.70;;;18.30;78.30;;;;;;5093923;28;20040;-72
2022/06/27 05:53:34;;;;;;;0.70;0.57;;;18.20;78.30;;;;;;5093883;28;20513;-72
2022/06/27 05:56:00;;;;;;;0.60;0.60;;;18.20;78.40;;;;;;5075707;28;20088;-72
2022/06/27 05:58:26;;;;;;;0.70;0.70;;;18.20;78.50;;;;;;5094126;28;20088;-72
2022/06/27 06:00:53;;;;;;;0.70;0.70;;;18.20;78.50;;;;;;5058962;28;20400;-72
2022/06/27 06:03:19;;;;;;;0.60;0.60;;;18.30;78.60;;;;;;5075560;28;20514;-72
2022/06/27 06:05:45;;;;;;;0.70;0.60;;;18.30;78.60;;;;;;5093739;28;20044;-72
2022/06/27 06:08:11;;;;;;;0.88;0.70;;;18.30;78.70;;;;;;5075374;28;20051;-72
2022/06/27 06:10:38;;;;;;;0.50;0.50;;;18.30;78.70;;;;;;5093163;28;20050;-72
2022/06/27 06:13:04;;;;;;;0.68;0.57;;;18.40;78.70;;;;;;5093661;28;20084;-72
2022/06/27 06:15:31;;;;;;;0.90;0.70;;;18.50;78.50;;;;;;5093484;28;20520;-72
2022/06/27 06:18:01;;;;;;;0.63;0.60;;;18.50;78.40;;;;;;5075719;28;20044;-73
2022/06/27 06:20:28;;;;;;;0.98;0.60;;;18.60;78.40;;;;;;5093288;28;20497;-72
2022/06/27 06:22:54;;;;;;;0.80;0.68;;;18.70;78.40;;;;;;5093895;28;20066;-73
2022/06/27 06:25:20;;;;;;;0.75;0.65;;;18.60;78.20;;;;;;5093456;28;20055;-72
2022/06/27 06:27:46;;;;;;;0.68;0.68;;;18.70;78.20;;;;;;5093145;28;20040;-73
2022/06/27 06:30:12;;;;;;;0.70;0.70;;;18.70;78.20;;;;;;5093314;28;20036;-73
2022/06/27 06:32:38;;;;;;;0.65;0.65;;;18.70;78.30;;;;;;5075586;28;20044;-73
2022/06/27 06:35:05;;;;;;;0.68;0.68;;;18.60;78.40;;;;;;5074943;28;20055;-73
2022/06/27 06:37:31;;;;;;;0.60;0.50;;;18.60;78.60;;;;;;5093307;28;20083;-73
2022/06/27 06:39:57;;;;;;;0.85;0.70;;;18.60;78.80;;;;;;5093629;28;20115;-73
2022/06/27 06:42:23;;;;;;;0.70;0.70;;;18.50;79.00;;;;;;5075144;28;20044;-72
2022/06/27 06:44:52;;;;;;;0.50;0.50;;;18.50;79.00;;;;;;5093199;28;20513;-73
2022/06/27 06:47:19;;;;;;;0.65;0.65;;;18.50;79.00;;;;;;5075572;28;20071;-73
2022/06/27 06:49:46;;;;;;;0.60;0.60;;;18.50;79.10;;;;;;5075802;28;20476;-72
2022/06/27 06:52:13;;;;;;;0.70;0.63;;;18.50;79.10;;;;;;5058200;28;20085;-72
2022/06/27 06:54:41;;;;;;;0.60;0.60;;;18.60;79.20;;;;;;5093021;28;20458;-72
2022/06/27 06:57:10;;;;;;;2.38;1.20;;;18.60;79.00;;;;;;5093357;28;20100;-72
2022/06/27 06:59:36;;;;;;;1.23;0.98;;;18.60;79.00;;;;;;5092800;28;20044;-73
2022/06/27 07:02:03;;;;;;;1.13;0.80;;;18.50;78.90;;;;;;5092861;28;20055;-72
2022/06/27 07:04:29;;;;;;;1.58;1.00;;;18.60;79.10;;;;;;5074783;28;20448;-72
2022/06/27 07:06:56;;;;;;;1.00;0.80;;;18.60;79.00;;;;;;5092570;28;20226;-74
2022/06/27 07:09:21;;;;;;;0.70;0.70;;;18.70;79.00;;;;;;5092715;28;20119;-74
2022/06/27 07:11:48;;;;;;;0.70;0.70;;;18.70;79.00;;;;;;5092476;28;20111;-74
2022/06/27 07:14:15;;;;;;;0.90;0.90;;;18.80;78.90;;;;;;5074528;28;20482;-74
2022/06/27 07:16:42;;;;;;;1.10;0.80;;;18.70;78.90;;;;;;5093189;28;20047;-74
2022/06/27 07:19:08;;;;;;;0.60;0.60;;;18.80;78.90;;;;;;5092486;28;20508;-74
2022/06/27 07:21:34;;;;;;;1.90;0.90;;;18.70;78.80;;;;;;5091487;28;20051;-74
2022/06/27 07:24:01;;;;;;;0.80;0.80;;;18.80;78.90;;;;;;5092447;28;20028;-73
2022/06/27 07:26:31;;;;;;;0.95;0.80;;;18.90;78.90;;;;;;5091706;28;20052;-73
2022/06/27 07:28:57;;;;;;;1.65;1.25;;;18.90;78.90;;;;;;5092408;28;20498;-73
2022/06/27 07:31:48;;;;;;;1.00;0.82;;;18.90;78.80;;;;;;5092286;28;20032;-73
2022/06/27 07:34:26;;;;;;;1.55;1.05;;;18.90;78.80;;;;;;5091807;28;20458;-74
2022/06/27 07:59:44;;;;;;;0.80;0.80;;;19.00;78.70;;;;;;4729891;30;20135;-72
2022/06/27 08:02:10;;;;;;;0.88;0.82;;;19.10;78.60;;;;;;4701998;30;20523;-72
2022/06/27 08:04:44;;;;;;;0.68;0.68;;;19.10;78.50;;;;;;4698701;30;20053;-73
2022/06/27 08:11:13;;;;;;;1.15;0.73;;;19.40;78.30;;;;;;4710703;30;20126;-73
2022/06/27 08:14:03;;;;;;;1.45;1.08;;;19.40;78.10;;;;;;4716167;30;20497;-73
2022/06/27 09:34:43;;;;;;;0.43;0.43;;;20.50;76.30;;;;;;5150638;27;20139;-74
2022/06/27 09:37:18;;;;;;;0.50;0.50;;;20.80;75.70;;;;;;5090188;28;20124;-73
2022/06/27 09:39:59;;;;;;;0.90;0.90;;;20.90;75.60;;;;;;5111766;27;20504;-73
2022/06/27 09:42:25;;;;;;;0.45;0.45;;;21.00;75.60;;;;;;5070491;28;20483;-74
2022/06/27 09:44:51;;;;;;;0.85;0.50;;;20.90;75.60;;;;;;5069936;28;20066;-74
2022/06/27 09:47:19;;;;;;;0.60;0.60;;;20.90;75.60;;;;;;5086690;28;20396;-73
2022/06/27 09:50:33;;;;;;;1.35;0.75;;;21.00;75.50;;;;;;5069478;28;20048;-74
2022/06/27 10:00:27;;;;;;;0.55;0.55;;;20.90;75.60;;;;;;4875885;29;20132;-72
2022/06/27 10:03:01;;;;;;;1.13;0.55;;;20.80;75.70;;;;;;4814525;29;20087;-73
2022/06/27 10:05:27;;;;;;;0.40;0.40;;;20.70;75.80;;;;;;4837987;29;20044;-72
2022/06/27 10:07:58;;;;;;;0.68;0.52;;;20.80;75.80;;;;;;4901508;29;20408;-72
2022/06/27 10:10:24;;;;;;;0.50;0.50;;;20.80;75.70;;;;;;4906841;29;20405;-72
2022/06/27 10:41:56;;;;;;;1.00;0.50;;;21.60;74.10;;;;;;4811888;29;20050;-73
2022/06/27 10:50:49;;;;;;;0.50;0.50;;;22.00;72.90;;;;;;4750031;30;20183;-73
2022/06/27 10:53:38;;;;;;;0.82;0.57;;;22.10;73.10;;;;;;4750394;30;20044;-73
2022/06/27 10:56:33;;;;;;;0.60;0.60;;;22.10;72.90;;;;;;4732579;30;20053;-73
2022/06/27 11:22:43;;;;;;;0.47;0.47;;;22.20;72.30;;;;;;6338711;22;20022;-74
2022/06/27 11:25:38;;;;;;;0.52;0.52;;;22.10;72.30;;;;;;6336408;22;20079;-74
2022/06/27 11:33:55;;;;;;;0.60;0.50;;;22.00;72.30;;;;;;6344780;22;20089;-76
2022/06/27 11:40:05;;;;;;;0.60;0.60;;;22.00;72.40;;;;;;6247943;22;20026;-73
2022/06/27 11:42:36;;;;;;;0.50;0.50;;;21.90;72.40;;;;;;6224924;22;20019;-72
2022/06/27 11:45:10;;;;;;;1.75;0.70;;;21.90;72.50;;;;;;6224281;22;20020;-72
2022/06/27 11:48:16;;;;;;;0.57;0.50;;;21.90;72.40;;;;;;6224221;22;20012;-72
2022/06/27 11:55:28;;;;;;;0.60;0.60;;;21.90;72.20;;;;;;5977646;23;20026;-73
2022/06/27 12:01:09;;;;;;;0.50;0.50;;;22.00;72.70;;;;;;5957055;24;20023;-72
2022/06/27 12:03:42;;;;;;;0.50;0.50;;;22.10;72.10;;;;;;5935132;24;20020;-73
2022/06/27 12:06:15;;;;;;;0.32;0.30;;;22.10;71.80;;;;;;5958216;24;20051;-74
2022/06/27 12:09:01;;;;;;;1.38;0.50;;;22.10;71.60;;;;;;5939545;24;20024;-74
2022/06/27 12:11:57;;;;;;;0.63;0.52;;;22.20;71.50;;;;;;5985619;23;20024;-75
2022/06/27 12:14:49;;;;;;;1.38;0.50;;;22.10;71.60;;;;;;5983258;24;20072;-73
2022/06/27 12:17:39;;;;;;;0.73;0.50;;;22.20;71.50;;;;;;5985917;23;20019;-74
2022/06/27 12:23:44;;;;;;;1.75;0.60;;;22.40;71.00;;;;;;5979416;23;20412;-74
2022/06/27 12:26:13;;;;;;;0.45;0.45;;;22.60;70.40;;;;;;6011572;23;20008;-72
2022/06/27 12:28:42;;;;;;;1.88;1.00;;;22.80;70.00;;;;;;6065204;23;20025;-73
2022/06/27 12:31:08;;;;;;;0.73;0.63;;;22.90;69.70;;;;;;6098750;23;20464;-72
2022/06/27 12:33:34;;;;;;;1.08;0.60;;;22.90;69.70;;;;;;6099519;23;20092;-72
2022/06/27 12:36:00;;;;;;;0.55;0.55;;;22.80;69.60;;;;;;6096546;23;20041;-73
2022/06/27 12:38:26;;;;;;;1.00;0.68;;;22.80;69.70;;;;;;6115944;23;20025;-72
2022/06/27 12:41:11;;;;;;;0.82;0.63;;;22.70;69.80;;;;;;6128599;23;20410;-72
2022/06/27 12:43:40;;;;;;;1.30;0.63;;;22.70;70.00;;;;;;6152985;23;20034;-73
2022/06/27 12:46:05;;;;;;;0.70;0.70;;;22.60;70.20;;;;;;6128387;23;20010;-72
2022/06/27 12:48:32;;;;;;;0.50;0.50;;;22.50;70.30;;;;;;6125327;23;20069;-72
2022/06/27 12:50:59;;;;;;;0.73;0.60;;;22.50;70.10;;;;;;6152585;23;20037;-73
2022/06/27 12:53:25;;;;;;;0.63;0.43;;;22.40;70.30;;;;;;6177449;22;20424;-73
2022/06/27 12:55:53;;;;;;;0.77;0.60;;;22.30;70.40;;;;;;6335645;22;20128;-72
2022/06/27 12:58:19;;;;;;;0.50;0.47;;;22.30;70.50;;;;;;6338532;22;20512;-73
2022/06/27 13:00:50;;;;;;;0.47;0.40;;;22.20;70.60;;;;;;6336366;22;20006;-73
2022/06/27 13:03:35;;;;;;;0.85;0.60;;;22.20;70.60;;;;;;6336302;22;20046;-74
2022/06/27 13:06:03;;;;;;;0.50;0.50;;;22.20;70.80;;;;;;6222767;22;20019;-74
2022/06/27 13:08:29;;;;;;;0.47;0.47;;;22.10;70.80;;;;;;6222287;22;20011;-74
2022/06/27 13:10:55;;;;;;;0.60;0.57;;;22.10;70.90;;;;;;6273242;22;20348;-73
2022/06/27 13:13:23;;;;;;;0.82;0.70;;;22.00;71.00;;;;;;6247930;22;20439;-75
2022/06/27 13:15:52;;;;;;;0.60;0.52;;;22.00;70.90;;;;;;6219756;22;20015;-72
2022/06/27 13:18:27;;;;;;;0.45;0.45;;;22.10;70.80;;;;;;6247344;22;20011;-73
2022/06/27 13:20:53;;;;;;;0.60;0.60;;;22.00;70.50;;;;;;6191610;23;20027;-74
2022/06/27 13:23:25;;;;;;;0.73;0.50;;;22.10;70.50;;;;;;6191768;22;20016;-74
2022/06/27 13:26:07;;;;;;;0.80;0.57;;;22.10;70.60;;;;;;6192165;22;20016;-74
2022/06/27 13:28:36;;;;;;;0.50;0.50;;;21.90;70.50;;;;;;6193000;22;20016;-73
2022/06/27 13:31:25;;;;;;;1.40;0.68;;;21.90;70.60;;;;;;6217814;22;20372;-73
2022/06/27 13:33:53;;;;;;;0.60;0.60;;;21.80;70.70;;;;;;6159969;23;20032;-72
2022/06/27 13:36:19;;;;;;;1.50;0.88;;;21.70;70.80;;;;;;6117572;23;20012;-71
2022/06/27 13:38:48;;;;;;;1.77;0.95;;;21.60;70.70;;;;;;6153189;23;20050;-72
2022/06/27 13:41:54;;;;;;;0.80;0.80;;;21.60;70.80;;;;;;6152090;23;20017;-72
2022/06/27 13:44:40;;;;;;;1.98;1.13;;;21.40;71.10;;;;;;6070085;23;20054;-74
2022/06/27 15:46:33;;;;;;;0.63;0.50;;;17.00;77.60;;;;;;6357076;22;20027;-78
2022/06/27 16:18:36;;;;;;;0.20;0.20;;;17.60;77.40;;;;;;5933313;24;20077;-75
2022/06/27 16:25:27;;;;;;;0.50;0.40;;;17.60;77.80;;;;;;5951817;24;20386;-76
2022/06/27 16:55:49;;;;;;;0.30;0.30;;;17.40;78.70;;;;;;6304944;22;20055;-77
2022/06/27 16:58:15;;;;;;;0.30;0.30;;;17.40;78.80;;;;;;6337918;22;20015;-76
2022/06/27 17:00:42;;;;;;;0.30;0.30;;;17.40;78.80;;;;;;6336972;22;20007;-77
2022/06/27 17:03:10;;;;;;;0.20;0.20;;;17.50;78.90;;;;;;6283573;22;20033;-77
2022/06/27 17:05:37;;;;;;;0.30;0.30;;;17.60;78.80;;;;;;6337321;22;20025;-76
2022/06/27 17:08:05;;;;;;;0.30;0.30;;;17.70;78.50;;;;;;6284444;22;20014;-76
2022/06/27 17:10:32;;;;;;;0.30;0.30;;;17.70;78.30;;;;;;6307435;22;20041;-76
2022/06/27 17:13:01;;;;;;;0.40;0.40;;;17.80;78.20;;;;;;6310325;22;20003;-76
2022/06/27 17:15:27;;;;;;;0.30;0.30;;;17.80;78.20;;;;;;6337085;22;20411;-76
2022/06/27 17:17:52;;;;;;;0.40;0.40;;;17.70;78.10;;;;;;6308589;22;20018;-76
2022/06/27 17:35:51;;;;;;;0.30;0.30;;;18.00;78.00;;;;;;5921258;24;20017;-77
2022/06/27 17:38:40;;;;;;;0.30;0.30;;;18.10;77.80;;;;;;5873874;24;20036;-76
2022/06/27 17:45:51;;;;;;;0.30;0.30;;;18.20;77.70;;;;;;5752569;24;20600;-76
2022/06/27 17:55:50;;;;;;;0.20;0.20;;;18.30;78.10;;;;;;5736386;24;20438;-76
2022/06/27 17:58:16;;;;;;;0.30;0.30;;;18.40;77.40;;;;;;5724909;24;20165;-76
2022/06/27 18:00:43;;;;;;;0.20;0.20;;;18.60;77.20;;;;;;5730678;24;20019;-78
2022/06/27 18:03:09;;;;;;;0.30;0.30;;;18.80;77.20;;;;;;5804526;24;20026;-76
2022/06/27 18:05:35;;;;;;;0.57;0.40;;;19.20;77.60;;;;;;5881099;24;20331;-77
2022/06/27 18:08:01;;;;;;;0.30;0.30;;;20.00;77.30;;;;;;5899705;23;20025;-78
2022/06/27 18:10:27;;;;;;;0.30;0.30;;;21.00;74.70;;;;;;6148678;23;20013;-78
2022/06/27 18:12:52;;;;;;;0.55;0.50;;;21.50;71.60;;;;;;6152055;23;20124;-76
2022/06/27 18:15:19;;;;;;;0.60;0.50;;;21.40;70.50;;;;;;6136451;23;20037;-77
2022/06/27 18:17:44;;;;;;;0.68;0.57;;;21.10;71.70;;;;;;6127239;23;20446;-76
2022/06/27 18:20:12;;;;;;;0.50;0.43;;;21.10;72.60;;;;;;6165992;22;20008;-77
2022/06/27 18:23:01;;;;;;;0.50;0.50;;;21.40;72.50;;;;;;6273405;22;20039;-77
2022/06/27 18:25:27;;;;;;;0.40;0.40;;;21.80;71.20;;;;;;6220886;22;20165;-77
2022/06/27 18:27:53;;;;;;;0.40;0.40;;;22.40;69.50;;;;;;6248072;22;20471;-76
2022/06/27 18:30:18;;;;;;;0.38;0.38;;;22.60;68.70;;;;;;6359715;22;20082;-76
2022/06/27 18:32:44;;;;;;;0.30;0.30;;;22.40;69.20;;;;;;6369066;22;19994;-77
2022/06/27 18:35:10;;;;;;;0.50;0.50;;;22.60;69.90;;;;;;6368683;22;20002;-77
2022/06/27 18:37:35;;;;;;;0.40;0.40;;;23.00;69.80;;;;;;6368209;22;20049;-77
2022/06/27 18:40:01;;;;;;;0.40;0.40;;;23.40;68.70;;;;;;6368495;22;20358;-76
2022/06/27 18:42:27;;;;;;;0.73;0.30;;;23.80;67.40;;;;;;6368301;22;20026;-76
2022/06/27 18:44:53;;;;;;;0.90;0.50;;;24.00;67.00;;;;;;6340015;22;20014;-77
2022/06/27 18:47:20;;;;;;;0.82;0.50;;;24.00;66.70;;;;;;6310658;22;20003;-76
2022/06/27 18:49:46;;;;;;;0.80;0.60;;;23.80;66.80;;;;;;6336988;22;19994;-76
2022/06/27 18:52:12;;;;;;;0.45;0.45;;;23.80;67.30;;;;;;6337020;22;20415;-76
2022/06/27 18:54:37;;;;;;;0.70;0.60;;;23.60;66.80;;;;;;6337946;22;20288;-76
2022/06/27 18:57:04;;;;;;;0.40;0.40;;;23.20;67.20;;;;;;6337256;22;20002;-73
2022/06/27 18:59:29;;;;;;;0.50;0.50;;;22.70;68.50;;;;;;6306740;22;20044;-76
2022/06/27 19:01:55;;;;;;;0.60;0.40;;;22.30;69.60;;;;;;6336654;22;20319;-76
2022/06/27 19:04:21;;;;;;;0.30;0.30;;;21.90;70.60;;;;;;6336172;22;20377;-76
2022/06/27 19:06:51;;;;;;;0.45;0.40;;;21.60;71.10;;;;;;6336877;22;20006;-76
2022/06/27 19:09:19;;;;;;;0.30;0.30;;;21.30;71.50;;;;;;6330717;22;20148;-76
2022/06/27 19:11:46;;;;;;;0.30;0.30;;;20.80;72.00;;;;;;6336849;22;19999;-76
2022/06/27 19:14:12;;;;;;;1.02;0.30;;;20.40;72.70;;;;;;6308757;22;20015;-76
2022/06/27 19:16:38;;;;;;;0.30;0.30;;;20.00;73.50;;;;;;6308404;22;20010;-76
2022/06/27 19:19:05;;;;;;;0.30;0.30;;;19.70;74.20;;;;;;6308589;22;20443;-76
2022/06/27 19:21:30;;;;;;;0.30;0.30;;;19.40;74.60;;;;;;6336145;22;20003;-76
2022/06/27 19:23:56;;;;;;;0.60;0.40;;;19.20;75.00;;;;;;6314694;22;20006;-76
2022/06/27 19:26:23;;;;;;;0.40;0.40;;;19.00;75.20;;;;;;6306501;22;20006;-76
2022/06/27 19:28:49;;;;;;;0.82;0.30;;;18.80;75.50;;;;;;6335963;22;20015;-76
2022/06/27 19:31:15;;;;;;;0.30;0.28;;;18.70;75.70;;;;;;6309823;22;20006;-76
2022/06/27 19:33:41;;;;;;;1.00;0.60;;;18.60;75.80;;;;;;6338195;22;20303;-75
2022/06/27 19:36:07;;;;;;;0.65;0.30;;;18.40;75.90;;;;;;6309978;22;19995;-76
2022/06/27 19:38:33;;;;;;;0.38;0.38;;;18.30;76.00;;;;;;6338236;22;20027;-75
2022/06/27 19:41:00;;;;;;;0.55;0.40;;;18.20;76.10;;;;;;6339128;22;20323;-76